Time;durP1;ratioP1;P1;durP2;ratioP2;P2;SDS_P1;SDS_P2;PMS_P1;PMS_P2;Temp;Humidity;BMP_temperature;BMP_pressure;BME280_temperature;BME280_humidity;BME280_pressure;Samples;Min_cycle;Max_cycle;Signal;HPM_P1;HPM_P2
2021/11/18 00:00:40;;;;;;;;;17.00;12.00;;;;;10.07;69.66;102592.50;4970593;28;45466;-67
2021/11/18 00:03:07;;;;;;;;;28.67;24.33;;;;;10.10;69.71;102598.56;4978603;28;45443;-66
2021/11/18 00:05:33;;;;;;;;;21.33;13.33;;;;;10.10;69.54;102598.56;4958950;28;45719;-68
2021/11/18 00:07:59;;;;;;;;;46.25;36.50;;;;;10.09;69.31;102597.69;4964895;28;46269;-67
2021/11/18 00:11:01;;;;;;;;;13.33;12.00;;;;;10.12;69.16;102591.47;4966849;28;45362;-68
2021/11/18 00:13:33;;;;;;;;;15.67;13.33;;;;;10.12;69.08;102597.59;4971777;28;45529;-66
2021/11/18 00:16:01;;;;;;;;;23.67;22.33;;;;;10.08;69.10;102586.34;4971787;28;45201;-71
2021/11/18 00:18:29;;;;;;;;;19.33;15.33;;;;;10.10;69.01;102590.69;4973138;28;45590;-66
2021/11/18 00:20:54;;;;;;;;;22.00;16.00;;;;;10.08;69.14;102596.84;4973248;28;45431;-66
2021/11/18 00:23:21;;;;;;;;;14.67;14.33;;;;;10.06;69.07;102590.78;4975416;28;47888;-65
2021/11/18 00:25:47;;;;;;;;;19.00;15.00;;;;;10.04;69.26;102595.28;4976988;28;45608;-68
2021/11/18 00:28:13;;;;;;;;;19.67;13.33;;;;;10.01;69.68;102600.63;4977215;28;45674;-66
2021/11/18 00:30:40;;;;;;;;;11.67;10.67;;;;;9.99;69.06;102602.50;4978576;28;45570;-67
2021/11/18 00:33:07;;;;;;;;;16.00;12.33;;;;;9.96;69.05;102605.22;4973579;28;45355;-65
2021/11/18 00:35:34;;;;;;;;;14.67;13.33;;;;;9.93;69.20;102605.38;4972478;28;45455;-64
2021/11/18 00:38:00;;;;;;;;;16.00;11.67;;;;;9.93;69.53;102592.25;4980647;28;47300;-66
2021/11/18 00:40:31;;;;;;;;;26.67;14.67;;;;;9.89;69.65;102581.00;4971350;28;45516;-66
2021/11/18 00:42:57;;;;;;;;;16.67;15.67;;;;;9.86;69.37;102575.03;4954933;28;45261;-67
2021/11/18 00:45:24;;;;;;;;;18.33;15.00;;;;;9.83;69.25;102570.75;4974913;28;45468;-65
2021/11/18 00:47:51;;;;;;;;;22.00;17.00;;;;;9.80;69.06;102560.41;4972939;28;46254;-68
2021/11/18 00:50:19;;;;;;;;;28.00;18.00;;;;;9.74;69.12;102556.28;4969335;28;45835;-66
2021/11/18 00:52:44;;;;;;;;;18.00;17.33;;;;;9.74;69.47;102566.75;4970833;28;45262;-69
2021/11/18 00:55:11;;;;;;;;;16.33;14.00;;;;;9.68;69.65;102556.50;4971186;28;45335;-66
2021/11/18 00:57:36;;;;;;;;;15.67;11.00;;;;;9.67;69.36;102554.81;4970908;28;45996;-66
2021/11/18 01:00:09;;;;;;;;;20.67;16.67;;;;;9.64;69.31;102560.19;4967938;28;45619;-66
2021/11/18 01:02:34;;;;;;;;;18.67;15.33;;;;;9.63;69.33;102566.34;4968946;28;45383;-66
2021/11/18 01:04:59;;;;;;;;;16.00;13.67;;;;;9.59;69.67;102572.63;4970772;28;45444;-64
2021/11/18 01:07:27;;;;;;;;;12.33;10.67;;;;;9.55;69.91;102565.81;4970353;28;47268;-66
2021/11/18 01:09:52;;;;;;;;;18.00;14.00;;;;;9.55;69.89;102565.81;4971252;28;45363;-65
2021/11/18 01:12:17;;;;;;;;;24.67;18.00;;;;;9.54;69.98;102564.94;4972229;28;45444;-68
2021/11/18 01:14:43;;;;;;;;;16.67;14.33;;;;;9.53;69.83;102565.00;4971093;28;45343;-66
2021/11/18 01:17:08;;;;;;;;;19.00;16.00;;;;;9.50;69.60;102567.78;4970076;28;46350;-65
2021/11/18 01:19:34;;;;;;;;;20.67;18.33;;;;;9.46;70.00;102572.28;4970406;28;45552;-65
2021/11/18 01:22:03;;;;;;;;;15.33;10.67;;;;;9.46;69.59;102576.66;4970838;28;45609;-66
2021/11/18 01:24:29;;;;;;;;;17.33;15.33;;;;;9.41;69.72;102584.72;4969027;28;45649;-67
2021/11/18 01:26:54;;;;;;;;;21.00;17.67;;;;;9.30;69.62;102589.53;4971054;28;45281;-69
2021/11/18 01:29:19;;;;;;;;;15.00;13.67;;;;;9.16;69.85;102590.06;4973273;28;45490;-68
2021/11/18 01:31:45;;;;;;;;;19.00;13.00;;;;;9.04;69.67;102592.25;4971671;28;45389;-71
2021/11/18 01:34:10;;;;;;;;;18.00;16.67;;;;;8.95;70.14;102589.94;4973241;28;45386;-68
2021/11/18 01:36:36;;;;;;;;;20.33;14.67;;;;;8.91;71.19;102591.88;4973345;28;46222;-68
2021/11/18 01:39:05;;;;;;;;;20.00;16.00;;;;;8.92;71.11;102590.09;4972314;28;45474;-68
2021/11/18 01:41:32;;;;;;;;;18.00;15.67;;;;;8.95;71.17;102589.94;4971107;28;45392;-68
2021/11/18 01:44:01;;;;;;;;;27.00;19.67;;;;;8.97;71.13;102590.75;4970242;28;45363;-68
2021/11/18 01:46:37;;;;;;;;;21.67;14.67;;;;;9.01;71.49;102597.59;4969437;28;46197;-68
2021/11/18 01:49:06;;;;;;;;;11.00;5.67;;;;;9.05;71.18;102596.56;4965975;28;45635;-67
2021/11/18 01:51:42;;;;;;;;;17.00;15.67;;;;;9.11;71.22;102602.47;4973237;28;45356;-68
2021/11/18 01:54:11;;;;;;;;;16.67;12.33;;;;;9.13;71.14;102590.19;4976806;28;45380;-68
2021/11/18 01:56:37;;;;;;;;;22.00;15.67;;;;;9.15;70.68;102598.84;4977249;28;45387;-70
2021/11/18 01:59:14;;;;;;;;;24.67;20.33;;;;;9.12;71.09;102593.72;4970719;28;45412;-69
2021/11/18 02:01:42;;;;;;;;;23.67;16.00;;;;;9.13;70.72;102600.66;4976133;28;45402;-68
2021/11/18 02:04:12;;;;;;;;;25.67;17.33;;;;;9.13;70.39;102613.78;4975800;28;45542;-69
2021/11/18 02:06:43;;;;;;;;;13.33;9.00;;;;;9.12;70.44;102623.44;4973947;28;46233;-70
2021/11/18 02:09:11;;;;;;;;;22.67;16.00;;;;;9.08;70.32;102609.56;4971228;28;45307;-69
2021/11/18 02:11:41;;;;;;;;;16.67;14.33;;;;;9.12;70.21;102614.69;4970721;28;45465;-67
2021/11/18 02:14:09;;;;;;;;;25.33;16.00;;;;;9.12;70.47;102609.44;4970968;28;45557;-69
2021/11/18 02:16:36;;;;;;;;;20.33;17.67;;;;;9.10;70.44;102606.88;4972341;28;45394;-67
2021/11/18 02:19:03;;;;;;;;;22.33;18.67;;;;;9.12;70.21;102614.69;4973768;28;45365;-67
2021/11/18 02:21:29;;;;;;;;;28.00;21.00;;;;;9.07;70.07;102610.47;4995331;28;45310;-68
2021/11/18 02:24:02;;;;;;;;;22.50;20.00;;;;;9.07;70.21;102618.34;4973327;28;45261;-68
2021/11/18 02:26:27;;;;;;;;;28.50;19.25;;;;;9.06;70.38;102613.16;4979013;28;46302;-70
2021/11/18 02:28:57;;;;;;;;;24.25;19.75;;;;;9.03;70.45;102616.75;4985804;28;45467;-67
2021/11/18 02:31:30;;;;;;;;;30.50;23.00;;;;;8.99;70.38;102614.28;4973654;28;45558;-70
2021/11/18 02:33:57;;;;;;;;;34.25;27.25;;;;;8.95;70.55;102618.78;4987924;28;45694;-68
2021/11/18 02:36:24;;;;;;;;;21.50;20.50;;;;;8.95;70.37;102610.09;4975174;28;46213;-69
2021/11/18 02:38:50;;;;;;;;;31.50;25.25;;;;;8.90;70.19;102610.28;4972303;28;45494;-67
2021/11/18 02:41:19;;;;;;;;;30.25;20.25;;;;;8.88;70.21;102601.59;4972815;28;45408;-68
2021/11/18 02:43:46;;;;;;;;;27.75;23.25;;;;;8.84;70.19;102606.09;4971609;28;45370;-68
2021/11/18 02:46:11;;;;;;;;;22.50;22.25;;;;;8.80;70.03;102603.66;4973363;28;46891;-67
2021/11/18 02:48:37;;;;;;;;;25.75;22.25;;;;;8.79;70.10;102589.69;4974797;28;45405;-68
2021/11/18 02:51:06;;;;;;;;;25.75;20.25;;;;;8.77;70.46;102591.53;4974965;28;45571;-68
2021/11/18 02:53:32;;;;;;;;;30.75;22.50;;;;;8.77;70.39;102599.38;4974398;28;45314;-68
2021/11/18 02:55:58;;;;;;;;;25.75;21.50;;;;;8.77;70.58;102622.09;4973459;28;47222;-68
2021/11/18 02:58:24;;;;;;;;;23.50;19.75;;;;;8.72;70.54;102620.50;4974762;28;45362;-67
2021/11/18 03:01:04;;;;;;;;;29.25;27.00;;;;;8.72;70.69;102627.50;4975485;28;45306;-67
2021/11/18 03:03:30;;;;;;;;;27.00;21.75;;;;;8.68;70.36;102629.38;4973156;28;45574;-68
2021/11/18 03:05:57;;;;;;;;;31.75;26.25;;;;;8.68;70.62;102624.16;4973761;28;47056;-67
2021/11/18 03:08:24;;;;;;;;;34.25;26.75;;;;;8.68;70.61;102631.13;4973915;28;45486;-68
2021/11/18 03:10:51;;;;;;;;;28.75;22.25;;;;;8.65;70.75;102626.00;4974062;28;45459;-68
2021/11/18 03:13:18;;;;;;;;;34.75;27.75;;;;;8.65;70.61;102642.56;4973571;28;45283;-68
2021/11/18 03:15:45;;;;;;;;;32.50;25.25;;;;;8.65;70.39;102645.19;4972727;28;45244;-68
2021/11/18 03:18:11;;;;;;;;;36.75;30.25;;;;;8.63;70.50;102639.16;4974777;28;45473;-68
2021/11/18 03:20:36;;;;;;;;;36.25;30.25;;;;;8.61;70.48;102637.50;4970223;28;45237;-66
2021/11/18 03:23:02;;;;;;;;;15.75;13.50;;;;;8.59;70.49;102627.09;4971963;28;45807;-67
2021/11/18 03:25:30;;;;;;;;;34.50;29.75;;;;;8.61;70.77;102637.50;4970667;28;46122;-70
2021/11/18 03:27:56;;;;;;;;;36.00;32.25;;;;;8.59;70.98;102629.72;4983708;28;45364;-67
2021/11/18 03:30:25;;;;;;;;;31.75;24.75;;;;;8.59;70.95;102637.56;4973693;28;45538;-69
2021/11/18 03:32:52;;;;;;;;;35.50;30.00;;;;;8.58;70.89;102641.09;4971134;28;45391;-68
2021/11/18 03:35:19;;;;;;;;;24.75;24.25;;;;;8.59;70.44;102640.19;4971716;28;45429;-68
2021/11/18 03:37:45;;;;;;;;;36.00;28.00;;;;;8.59;70.65;102641.03;4981639;28;45916;-68
2021/11/18 03:40:11;;;;;;;;;28.25;25.25;;;;;8.61;70.96;102642.75;4971754;28;45515;-68
2021/11/18 03:42:36;;;;;;;;;32.50;25.00;;;;;8.59;70.84;102638.41;4972605;28;45492;-68
2021/11/18 03:45:04;;;;;;;;;27.75;25.00;;;;;8.59;70.60;102648.06;4973310;28;45330;-67
2021/11/18 03:47:30;;;;;;;;;30.75;25.50;;;;;8.55;70.62;102647.31;4971020;28;45498;-67
2021/11/18 03:49:55;;;;;;;;;26.25;25.00;;;;;8.55;70.65;102646.44;4973079;28;45510;-67
2021/11/18 03:52:21;;;;;;;;;9.00;5.00;;;;;8.53;70.70;102640.41;4972890;28;45415;-67
2021/11/18 03:54:47;;;;;;;;;39.75;30.50;;;;;8.52;70.48;102643.94;4972591;28;45536;-68
2021/11/18 03:57:13;;;;;;;;;35.75;30.00;;;;;8.51;70.45;102644.81;4975132;28;45498;-68
2021/11/18 03:59:42;;;;;;;;;34.25;27.00;;;;;8.51;70.71;102639.59;4975236;28;45550;-67
2021/11/18 04:02:08;;;;;;;;;35.25;29.00;;;;;8.49;70.64;102631.78;4971814;28;45427;-68
2021/11/18 04:04:38;;;;;;;;;34.00;29.50;;;;;8.48;70.40;102644.94;4972271;28;46685;-68
2021/11/18 04:07:04;;;;;;;;;38.25;32.25;;;;;8.48;70.57;102652.81;4969091;28;45464;-68
2021/11/18 04:09:29;;;;;;;;;32.25;28.00;;;;;8.45;71.01;102645.03;4972923;28;45467;-68
2021/11/18 04:11:59;;;;;;;;;42.50;33.75;;;;;8.46;71.15;102646.75;4970167;28;45545;-68
2021/11/18 04:14:25;;;;;;;;;33.75;28.50;;;;;8.45;71.23;102645.88;4971563;28;46316;-69
2021/11/18 04:16:51;;;;;;;;;40.25;29.50;;;;;8.42;70.39;102638.97;4971533;28;45406;-68
2021/11/18 04:19:18;;;;;;;;;40.75;31.25;;;;;8.42;70.38;102652.06;4970869;28;45315;-69
2021/11/18 04:21:44;;;;;;;;;36.50;35.25;;;;;8.43;70.34;102664.28;4971164;28;45419;-67
2021/11/18 04:24:15;;;;;;;;;35.25;32.00;;;;;8.42;70.37;102673.03;4973620;28;46218;-68
2021/11/18 04:26:41;;;;;;;;;36.00;30.25;;;;;8.42;70.73;102666.94;4971248;28;45603;-69
2021/11/18 04:29:07;;;;;;;;;37.75;35.75;;;;;8.40;70.87;102672.22;4971596;28;45551;-68
2021/11/18 04:31:33;;;;;;;;;40.00;34.75;;;;;8.42;70.85;102673.03;4970177;28;45462;-68
2021/11/18 04:33:59;;;;;;;;;36.75;33.25;;;;;8.41;71.10;102676.53;4971607;28;47066;-67
2021/11/18 04:36:25;;;;;;;;;34.75;30.00;;;;;8.43;70.69;102684.34;4974312;28;45305;-70
2021/11/18 04:38:52;;;;;;;;;36.75;32.00;;;;;8.43;70.70;102685.22;4971080;28;45392;-68
2021/11/18 04:41:19;;;;;;;;;36.00;32.75;;;;;8.43;70.79;102687.84;4970759;28;45356;-68
2021/11/18 04:43:45;;;;;;;;;33.75;30.25;;;;;8.41;70.19;102689.63;4969588;28;46394;-69
2021/11/18 04:46:12;;;;;;;;;33.75;29.25;;;;;8.41;70.16;102684.41;4970861;28;45287;-68
2021/11/18 04:48:39;;;;;;;;;43.75;36.25;;;;;8.39;70.42;102694.09;4971405;28;45420;-69
2021/11/18 04:51:06;;;;;;;;;36.75;31.25;;;;;8.38;70.80;102695.00;4975884;28;45557;-68
2021/11/18 04:53:32;;;;;;;;;43.00;35.50;;;;;8.34;71.25;102701.25;4972991;28;46297;-68
2021/11/18 04:55:58;;;;;;;;;32.50;27.75;;;;;8.31;71.13;102701.31;4970636;28;45338;-68
2021/11/18 04:58:24;;;;;;;;;42.50;31.25;;;;;8.27;71.23;102695.31;4988594;28;45612;-69
2021/11/18 05:00:53;;;;;;;;;25.00;20.00;;;;;8.29;71.48;102705.78;4984533;28;45470;-69
2021/11/18 05:03:20;;;;;;;;;44.25;36.50;;;;;8.29;70.99;102705.78;4982415;28;46438;-69
2021/11/18 05:05:49;;;;;;;;;38.25;35.50;;;;;8.31;71.18;102709.19;4973337;28;45509;-68
2021/11/18 05:08:15;;;;;;;;;35.00;30.75;;;;;8.33;70.89;102715.25;4981638;28;45269;-68
2021/11/18 05:10:43;;;;;;;;;40.50;34.00;;;;;8.34;70.67;102709.09;4973541;28;45427;-68
2021/11/18 05:13:09;;;;;;;;;42.75;31.00;;;;;8.35;71.02;102704.72;4970825;28;45470;-67
2021/11/18 05:15:38;;;;;;;;;44.50;36.50;;;;;8.37;70.70;102709.00;4972185;28;45462;-69
2021/11/18 05:18:06;;;;;;;;;40.00;34.50;;;;;8.34;70.85;102706.47;4973267;28;45387;-69
2021/11/18 05:20:32;;;;;;;;;37.25;32.75;;;;;8.33;70.23;102723.09;4972628;28;45537;-69
2021/11/18 05:22:58;;;;;;;;;40.25;34.75;;;;;8.28;70.45;102706.69;4970365;28;47073;-69
2021/11/18 05:25:26;;;;;;;;;39.50;33.50;;;;;8.29;70.25;102700.53;4969671;28;45368;-69
2021/11/18 05:27:52;;;;;;;;;47.25;35.75;;;;;8.27;70.27;102704.97;4970351;28;45348;-69
2021/11/18 05:30:19;;;;;;;;;42.75;35.75;;;;;8.22;70.37;102710.34;4972352;28;45327;-69
2021/11/18 05:32:47;;;;;;;;;42.25;36.00;;;;;8.20;70.09;102713.91;4970199;28;46560;-68
2021/11/18 05:35:12;;;;;;;;;45.75;36.00;;;;;8.17;70.50;102714.88;4968095;28;45391;-68
2021/11/18 05:37:38;;;;;;;;;35.00;29.00;;;;;8.16;70.08;102717.53;4970434;28;45512;-68
2021/11/18 05:40:08;;;;;;;;;50.00;39.25;;;;;8.13;70.51;102707.19;4970976;28;45392;-67
2021/11/18 05:42:34;;;;;;;;;46.75;35.00;;;;;8.10;70.64;102714.22;4969517;28;47235;-68
2021/11/18 05:45:01;;;;;;;;;45.00;38.25;;;;;8.09;70.08;102715.13;4970779;28;45384;-67
2021/11/18 05:47:26;;;;;;;;;23.00;23.00;;;;;8.07;70.11;102724.78;4970156;28;45523;-68
2021/11/18 05:49:51;;;;;;;;;46.00;38.25;;;;;8.02;70.52;102726.69;4968985;28;45378;-69
2021/11/18 05:52:17;;;;;;;;;45.25;39.75;;;;;8.04;70.43;102726.63;4970220;28;46094;-68
2021/11/18 05:54:43;;;;;;;;;47.50;34.50;;;;;8.02;70.37;102724.06;4970598;28;45563;-69
2021/11/18 05:57:08;;;;;;;;;44.75;36.00;;;;;7.98;70.19;102718.97;4972369;28;45391;-69
2021/11/18 05:59:33;;;;;;;;;41.25;36.00;;;;;8.00;70.47;102718.03;4969800;28;45402;-69
2021/11/18 06:01:59;;;;;;;;;51.50;38.50;;;;;7.99;70.04;102718.94;4972282;28;46215;-68
2021/11/18 06:04:26;;;;;;;;;46.50;37.25;;;;;7.97;70.13;102727.75;4972217;28;45751;-68
2021/11/18 06:06:51;;;;;;;;;45.75;38.00;;;;;8.00;70.03;102738.13;4974161;28;45450;-67
2021/11/18 06:09:17;;;;;;;;;44.50;35.00;;;;;8.00;70.38;102743.34;4975215;28;45339;-67
2021/11/18 06:11:43;;;;;;;;;54.25;41.75;;;;;7.99;69.73;102744.25;4976443;28;46228;-69
2021/11/18 06:14:09;;;;;;;;;43.75;39.00;;;;;7.96;69.99;102737.34;4974724;28;45473;-68
2021/11/18 06:16:35;;;;;;;;;45.50;39.00;;;;;7.95;70.19;102738.25;4979398;28;45478;-69
2021/11/18 06:19:03;;;;;;;;;43.50;35.50;;;;;7.96;70.06;102737.34;4980262;28;45434;-69
2021/11/18 06:21:34;;;;;;;;;42.75;36.25;;;;;7.96;69.84;102745.19;4975052;28;47019;-69
2021/11/18 06:24:01;;;;;;;;;49.75;39.00;;;;;7.97;70.42;102743.47;4974797;28;45581;-68
2021/11/18 06:26:27;;;;;;;;;34.75;33.25;;;;;7.97;70.04;102739.06;4973129;28;45480;-68
2021/11/18 06:28:57;;;;;;;;;49.00;38.75;;;;;7.97;69.95;102738.22;4972837;28;45559;-69
2021/11/18 06:31:24;;;;;;;;;34.50;33.25;;;;;7.96;69.69;102742.59;4974082;28;45313;-69
2021/11/18 06:33:51;;;;;;;;;49.00;38.00;;;;;7.96;69.78;102742.59;4975504;28;45195;-68
2021/11/18 06:36:16;;;;;;;;;57.25;42.00;;;;;7.96;69.48;102744.34;4976541;28;45246;-68
2021/11/18 06:38:44;;;;;;;;;51.25;40.75;;;;;7.96;69.61;102746.97;4974965;28;45522;-68
2021/11/18 06:41:11;;;;;;;;;38.00;22.50;;;;;7.93;69.81;102747.94;4972952;28;45388;-70
2021/11/18 06:43:37;;;;;;;;;51.25;39.75;;;;;7.92;69.43;102754.06;4973024;28;45612;-69
2021/11/18 06:46:03;;;;;;;;;51.00;39.75;;;;;7.89;70.13;102756.78;4971042;28;45328;-68
2021/11/18 06:48:32;;;;;;;;;48.50;41.00;;;;;7.90;69.77;102758.47;4973971;28;45565;-71
2021/11/18 06:51:13;;;;;;;;;38.75;35.25;;;;;7.89;70.28;102768.09;4971220;28;47254;-69
2021/11/18 06:53:40;;;;;;;;;48.75;38.50;;;;;7.89;69.95;102767.25;4972545;28;45334;-67
2021/11/18 06:56:09;;;;;;;;;44.50;39.25;;;;;7.89;70.21;102762.00;4974190;28;45310;-68
2021/11/18 06:58:34;;;;;;;;;48.25;34.75;;;;;7.89;69.49;102768.09;4974546;28;45451;-69
2021/11/18 07:01:00;;;;;;;;;53.75;42.25;;;;;7.89;70.39;102769.88;4973706;28;46184;-69
2021/11/18 07:03:25;;;;;;;;;54.50;41.50;;;;;7.88;70.36;102765.53;4981506;28;45361;-67
2021/11/18 07:05:51;;;;;;;;;54.50;41.00;;;;;7.90;70.67;102769.81;4977606;28;45708;-69
2021/11/18 07:08:17;;;;;;;;;52.50;40.25;;;;;7.92;70.56;102780.22;4974873;28;45475;-70
2021/11/18 07:10:44;;;;;;;;;44.25;37.25;;;;;7.93;70.21;102785.41;4976076;28;46909;-69
2021/11/18 07:13:22;;;;;;;;;41.00;36.50;;;;;7.95;70.02;102787.13;4975942;28;45375;-69
2021/11/18 07:15:48;;;;;;;;;51.75;39.50;;;;;7.93;69.92;102785.41;4972335;28;45456;-70
2021/11/18 07:18:14;;;;;;;;;50.00;40.25;;;;;7.92;69.45;102786.31;4974643;28;45370;-69
2021/11/18 07:20:41;;;;;;;;;53.50;37.00;;;;;7.90;70.01;102789.88;4969754;28;46138;-68
2021/11/18 07:23:07;;;;;;;;;50.50;37.00;;;;;7.89;69.72;102785.56;4971390;28;45509;-69
2021/11/18 07:25:33;;;;;;;;;41.50;36.00;;;;;7.89;70.00;102783.78;4983689;28;45340;-70
2021/11/18 07:28:00;;;;;;;;;45.25;40.00;;;;;7.88;70.17;102787.31;4971966;28;45269;-70
2021/11/18 07:30:25;;;;;;;;;54.75;39.00;;;;;7.90;69.42;102782.03;4974751;28;46392;-68
2021/11/18 07:32:52;;;;;;;;;60.00;42.50;;;;;7.92;69.35;102788.91;4973510;28;45558;-69
2021/11/18 07:35:18;;;;;;;;;56.00;42.00;;;;;7.92;69.82;102788.06;4972802;28;45399;-68
2021/11/18 07:37:43;;;;;;;;;50.75;41.25;;;;;7.92;69.54;102788.91;4974040;28;45879;-70
2021/11/18 07:40:12;;;;;;;;;16.50;12.25;;;;;7.96;69.57;102789.69;4973788;28;45726;-69
2021/11/18 07:42:38;;;;;;;;;51.50;40.00;;;;;8.03;69.38;102788.63;4972457;28;45613;-68
2021/11/18 07:45:06;;;;;;;;;50.25;41.00;;;;;8.09;69.20;102779.69;4974313;28;45248;-68
2021/11/18 07:47:31;;;;;;;;;55.50;43.00;;;;;8.17;68.68;102784.69;4972136;28;45470;-68
2021/11/18 07:49:57;;;;;;;;;60.25;42.75;;;;;8.18;68.69;102783.81;4972164;28;46947;-69
2021/11/18 07:52:22;;;;;;;;;59.75;43.50;;;;;8.19;68.39;102780.28;4972374;28;45687;-67
2021/11/18 07:54:48;;;;;;;;;50.50;39.00;;;;;8.18;68.58;102778.56;4972612;28;45299;-68
2021/11/18 07:57:13;;;;;;;;;40.25;35.75;;;;;8.19;68.68;102782.91;4974014;28;45433;-68
2021/11/18 07:59:38;;;;;;;;;38.00;30.50;;;;;8.22;68.22;102785.41;4970840;28;45793;-68
2021/11/18 08:02:04;;;;;;;;;35.25;31.25;;;;;8.23;68.26;102795.00;4970652;28;45393;-69
2021/11/18 08:04:31;;;;;;;;;38.75;34.75;;;;;8.27;68.01;102799.22;4971176;28;45349;-68
2021/11/18 08:06:59;;;;;;;;;35.50;29.00;;;;;8.33;67.68;102787.69;4971576;28;45542;-67
2021/11/18 08:09:25;;;;;;;;;35.25;31.50;;;;;8.34;67.79;102794.66;4973896;28;46475;-69
2021/11/18 08:11:56;;;;;;;;;37.50;34.25;;;;;8.38;67.51;102806.72;4971347;28;45436;-68
2021/11/18 08:14:22;;;;;;;;;39.75;34.00;;;;;8.39;67.36;102809.31;4970055;28;45354;-69
2021/11/18 08:16:48;;;;;;;;;43.25;35.75;;;;;8.30;67.08;102801.72;4972003;28;45348;-69
2021/11/18 08:19:14;;;;;;;;;35.00;31.50;;;;;8.35;66.86;102818.16;4971801;28;47101;-70
2021/11/18 08:21:42;;;;;;;;;27.00;20.75;;;;;8.33;66.99;102813.88;4972485;28;45462;-69
2021/11/18 08:24:10;;;;;;;;;35.50;32.75;;;;;8.36;67.40;102811.19;4975634;28;45443;-69
2021/11/18 08:26:37;;;;;;;;;47.00;36.50;;;;;8.38;67.17;102810.22;4974187;28;45481;-68
2021/11/18 08:29:03;;;;;;;;;46.25;36.25;;;;;8.43;66.43;102810.06;4971920;28;47335;-69
2021/11/18 08:31:28;;;;;;;;;35.75;27.00;;;;;8.45;66.38;102812.66;4983001;28;45400;-68
2021/11/18 08:33:55;;;;;;;;;40.50;34.00;;;;;8.43;66.39;102816.19;4956637;28;45766;-68
2021/11/18 08:36:22;;;;;;;;;36.75;35.25;;;;;8.46;66.41;102819.63;4973142;28;45517;-70
2021/11/18 08:38:48;;;;;;;;;38.50;34.00;;;;;8.44;66.47;102811.78;4969661;28;47060;-68
2021/11/18 08:41:16;;;;;;;;;41.50;35.50;;;;;8.50;66.20;102821.25;4971536;28;45498;-67
2021/11/18 08:43:44;;;;;;;;;41.25;36.50;;;;;8.48;66.33;102817.81;4971703;28;45443;-67
2021/11/18 08:46:11;;;;;;;;;48.25;38.50;;;;;8.47;66.22;102826.56;4972887;28;45553;-68
2021/11/18 08:48:38;;;;;;;;;42.00;38.00;;;;;8.48;65.87;102818.66;4972247;28;45532;-67
2021/11/18 08:51:04;;;;;;;;;49.25;36.75;;;;;8.53;65.71;102831.63;4973017;28;45414;-68
2021/11/18 08:53:33;;;;;;;;;53.75;41.75;;;;;8.50;66.14;102821.25;4971486;28;45502;-69
2021/11/18 08:55:58;;;;;;;;;38.25;33.00;;;;;8.45;65.97;102838.84;4986267;28;45323;-68
2021/11/18 08:58:27;;;;;;;;;42.00;35.25;;;;;8.46;66.03;102837.94;4970194;28;46157;-69
2021/11/18 09:00:58;;;;;;;;;46.00;36.50;;;;;8.45;66.11;102839.69;4971609;28;45592;-69
2021/11/18 09:03:26;;;;;;;;;37.75;33.25;;;;;8.46;66.02;102836.22;4969920;28;45324;-69
2021/11/18 09:05:52;;;;;;;;;45.50;36.25;;;;;8.47;66.12;102842.28;4970310;28;45554;-69
2021/11/18 09:08:19;;;;;;;;;38.00;34.00;;;;;8.49;65.94;102835.25;4974688;28;46045;-69
2021/11/18 09:10:47;;;;;;;;;35.25;27.25;;;;;8.54;65.66;102828.09;4974771;28;45319;-68
2021/11/18 09:13:13;;;;;;;;;30.00;26.00;;;;;8.62;65.78;102831.31;4984181;28;45443;-68
2021/11/18 09:15:39;;;;;;;;;50.25;40.00;;;;;8.71;65.46;102831.03;4976952;28;45536;-69
2021/11/18 09:18:06;;;;;;;;;44.50;37.50;;;;;8.79;65.26;102835.16;4976300;28;45332;-68
2021/11/18 09:20:33;;;;;;;;;44.25;38.00;;;;;8.82;65.15;102837.69;4974270;28;45487;-69
2021/11/18 09:22:59;;;;;;;;;51.25;38.75;;;;;8.86;65.55;102842.78;4975027;28;45538;-68
2021/11/18 09:25:30;;;;;;;;;42.75;35.00;;;;;8.91;64.89;102842.59;4974843;28;45605;-68
2021/11/18 09:27:56;;;;;;;;;39.00;31.75;;;;;9.00;64.70;102842.28;4975442;28;48534;-68
2021/11/18 09:30:26;;;;;;;;;43.50;36.00;;;;;9.10;64.75;102847.25;4972596;28;45364;-68
2021/11/18 09:32:54;;;;;;;;;46.00;37.50;;;;;9.13;64.77;102837.50;4970429;28;45372;-67
2021/11/18 09:35:24;;;;;;;;;44.25;37.00;;;;;9.20;64.91;102840.78;4970547;28;45475;-68
2021/11/18 09:37:50;;;;;;;;;43.25;36.50;;;;;9.28;64.96;102843.97;4971416;28;45515;-68
2021/11/18 09:40:20;;;;;;;;;48.50;37.50;;;;;9.31;65.01;102850.88;4970894;28;45434;-69
2021/11/18 09:43:19;;;;;;;;;50.25;41.00;;;;;9.40;64.58;102847.94;4971398;28;45510;-68
2021/11/18 09:45:56;;;;;;;;;54.50;40.75;;;;;9.49;64.95;102849.38;4970036;28;45329;-69
2021/11/18 09:48:40;;;;;;;;;52.50;41.00;;;;;9.55;64.50;102857.03;4972895;28;47089;-69
2021/11/18 09:51:38;;;;;;;;;50.75;39.00;;;;;9.67;64.37;102850.50;4972432;28;45465;-69
2021/11/18 09:54:20;;;;;;;;;51.00;37.75;;;;;9.78;63.81;102844.84;4972328;28;45187;-68
2021/11/18 09:56:55;;;;;;;;;49.75;40.25;;;;;9.86;64.35;102846.28;4966233;28;45610;-68
2021/11/18 09:59:42;;;;;;;;;58.25;45.00;;;;;9.95;64.22;102841.59;4967049;28;46351;-69
2021/11/18 10:02:43;;;;;;;;;57.25;42.75;;;;;9.97;63.75;102852.91;4971013;28;45324;-68
2021/11/18 10:05:40;;;;;;;;;52.50;39.75;;;;;9.97;64.38;102855.53;4931013;28;45538;-68
2021/11/18 10:08:13;;;;;;;;;48.00;39.25;;;;;10.02;63.81;102858.84;4930845;28;49976;-67
2021/11/18 10:11:03;;;;;;;;;54.00;41.25;;;;;10.08;64.08;102859.44;4931603;28;46361;-67
2021/11/18 10:13:37;;;;;;;;;54.25;43.50;;;;;10.10;64.19;102858.53;4932026;28;45540;-69
2021/11/18 10:16:12;;;;;;;;;58.75;46.00;;;;;10.15;64.20;102851.34;4932330;28;45399;-67
2021/11/18 10:18:43;;;;;;;;;56.50;43.00;;;;;10.16;64.25;102856.53;4932782;28;45287;-68
2021/11/18 10:21:23;;;;;;;;;56.25;44.50;;;;;10.17;64.17;102863.50;4930298;28;46023;-68
2021/11/18 10:23:55;;;;;;;;;61.25;47.75;;;;;10.18;64.24;102859.09;4915643;28;45432;-68
2021/11/18 10:26:31;;;;;;;;;58.00;44.25;;;;;10.21;64.42;102864.22;4934236;28;45994;-67
2021/11/18 10:29:00;;;;;;;;;57.25;45.00;;;;;10.21;63.83;102866.84;4931033;28;45272;-67
2021/11/18 10:31:52;;;;;;;;;39.25;30.25;;;;;10.20;64.00;102855.50;4932698;28;47388;-68
2021/11/18 10:34:21;;;;;;;;;64.50;47.25;;;;;10.22;64.46;102865.94;4919988;28;46119;-68
2021/11/18 10:37:03;;;;;;;;;48.00;38.75;;;;;10.23;64.64;102863.25;4930496;28;45520;-69
2021/11/18 10:39:53;;;;;;;;;53.75;43.00;;;;;10.25;64.70;102865.84;4931826;28;45565;-68
2021/11/18 10:42:25;;;;;;;;;58.00;42.00;;;;;10.28;64.61;102865.69;4965539;28;46286;-69
2021/11/18 10:44:52;;;;;;;;;47.25;39.25;;;;;10.32;64.30;102877.78;4970861;28;45345;-69
2021/11/18 10:47:24;;;;;;;;;65.75;47.50;;;;;10.37;64.26;102880.28;4973703;28;45442;-67
2021/11/18 10:50:12;;;;;;;;;54.25;42.25;;;;;10.42;64.18;102880.09;4976465;28;45301;-68
2021/11/18 10:52:47;;;;;;;;;55.75;41.00;;;;;10.44;64.80;102881.75;4975142;28;45965;-67
2021/11/18 10:55:21;;;;;;;;;54.75;39.25;;;;;10.46;64.34;102879.94;4974108;28;45414;-69
2021/11/18 10:57:57;;;;;;;;;43.75;39.25;;;;;10.51;64.14;102871.88;4973539;28;45574;-69
2021/11/18 11:00:44;;;;;;;;;56.00;41.75;;;;;10.56;64.39;102875.19;4971368;28;45285;-68
2021/11/18 11:03:26;;;;;;;;;48.00;37.25;;;;;10.62;63.98;102884.56;4974268;28;46264;-67
2021/11/18 11:06:10;;;;;;;;;50.25;37.75;;;;;10.64;64.14;102878.34;4971692;28;45618;-68
2021/11/18 11:08:36;;;;;;;;;50.75;39.75;;;;;10.65;64.50;102866.91;4972803;28;45490;-68
2021/11/18 11:11:31;;;;;;;;;51.50;40.75;;;;;10.68;64.19;102874.66;4966970;28;45302;-68
2021/11/18 11:14:18;;;;;;;;;55.50;43.50;;;;;10.70;64.10;102871.97;5034827;28;47008;-68
2021/11/18 11:17:00;;;;;;;;;53.25;38.75;;;;;10.79;64.51;102862.88;5038687;28;45426;-67
2021/11/18 11:19:38;;;;;;;;;53.00;42.00;;;;;10.82;64.39;102862.72;5035674;28;45446;-68
2021/11/18 11:22:14;;;;;;;;;51.75;40.00;;;;;10.88;64.12;102865.09;5021089;28;45445;-68
2021/11/18 11:24:59;;;;;;;;;54.50;42.00;;;;;10.95;63.65;102861.31;5036722;28;46091;-68